createdAt,value
2023-04-15T00:01:02.697Z,99175.38
2023-04-15T00:03:31.543Z,99180.88
2023-04-15T00:06:00.924Z,99174.91
2023-04-15T00:08:30.323Z,99173.72
2023-04-15T00:11:02.968Z,99165.50
2023-04-15T00:13:31.630Z,99168.00
2023-04-15T00:16:00.243Z,99161.19
2023-04-15T00:18:29.615Z,99162.91
2023-04-15T00:20:58.108Z,99160.00
2023-04-15T00:23:26.717Z,99159.84
2023-04-15T00:25:55.722Z,99156.25
2023-04-15T00:28:24.577Z,99145.84
2023-04-15T00:30:53.209Z,99148.84
2023-04-15T00:33:21.995Z,99146.56
2023-04-15T00:35:51.412Z,99148.69
2023-04-15T00:38:19.694Z,99143.91
2023-04-15T00:40:48.227Z,99142.72
2023-04-15T00:43:16.853Z,99149.50
2023-04-15T00:45:47.297Z,99133.03
2023-04-15T00:48:16.499Z,99136.53
2023-04-15T00:50:44.721Z,99127.28
2023-04-15T00:53:12.777Z,99131.38
2023-04-15T00:55:41.579Z,99125.09
2023-04-15T00:58:10.038Z,99125.28
2023-04-15T01:00:38.882Z,99119.69
2023-04-15T01:03:07.529Z,99124.63
2023-04-15T01:05:36.524Z,99125.09
2023-04-15T01:08:05.274Z,99124.72
2023-04-15T01:10:34.466Z,99114.31
2023-04-15T01:13:03.994Z,99122.06
2023-04-15T01:15:32.772Z,99127.22
2023-04-15T01:18:02.016Z,99121.25
2023-04-15T01:20:31.480Z,99118.91
2023-04-15T01:23:01.025Z,99116.88
2023-04-15T01:25:34.892Z,99115.22
2023-04-15T01:28:03.847Z,99117.06
2023-04-15T01:30:36.285Z,99109.66
2023-04-15T01:33:04.851Z,99112.50
2023-04-15T01:35:33.365Z,99109.84
2023-04-15T01:38:10.536Z,99113.66
2023-04-15T01:40:39.498Z,99105.91
2023-04-15T01:43:08.308Z,99104.47
2023-04-15T01:45:37.358Z,99103.63
2023-04-15T01:48:05.914Z,99095.84
2023-04-15T01:50:36.864Z,99091.75
2023-04-15T01:53:05.389Z,99091.91
2023-04-15T01:55:33.910Z,99095.75
2023-04-15T01:58:02.698Z,99086.81
2023-04-15T02:00:32.830Z,99091.66
2023-04-15T02:03:01.537Z,99085.97
2023-04-15T02:05:30.652Z,99088.47
2023-04-15T02:07:59.474Z,99082.50
2023-04-15T02:10:28.502Z,99081.69
2023-04-15T02:12:57.526Z,99082.25
2023-04-15T02:15:26.034Z,99078.94
2023-04-15T02:17:55.628Z,99086.41
2023-04-15T02:20:24.454Z,99080.31
2023-04-15T02:22:53.075Z,99079.88
2023-04-15T02:25:21.705Z,99076.38
2023-04-15T02:27:50.803Z,99080.84
2023-04-15T02:30:19.654Z,99074.94
2023-04-15T02:32:48.554Z,99074.72
2023-04-15T02:35:19.238Z,99064.34
2023-04-15T02:37:47.868Z,99063.66
2023-04-15T02:40:16.446Z,99059.19
2023-04-15T02:42:45.602Z,99058.22
2023-04-15T02:45:14.224Z,99054.91
2023-04-15T02:47:43.379Z,99051.88
2023-04-15T02:50:15.192Z,99056.19
2023-04-15T02:52:44.863Z,99059.03
2023-04-15T02:55:13.639Z,99058.22
2023-04-15T02:57:42.125Z,99057.38
2023-04-15T03:00:12.095Z,99059.41
2023-04-15T03:02:42.274Z,99065.22
2023-04-15T03:05:16.082Z,99061.59
2023-04-15T03:07:44.771Z,99057.75
2023-04-15T03:10:13.290Z,99052.44
2023-04-15T03:12:41.902Z,99050.78
2023-04-15T03:15:11.099Z,99058.09
2023-04-15T03:17:40.121Z,99049.13
2023-04-15T03:20:09.666Z,99054.63
2023-04-15T03:22:38.357Z,99055.47
2023-04-15T03:25:07.724Z,99052.63
2023-04-15T03:27:36.295Z,99049.34
2023-04-15T03:30:04.981Z,99063.22
2023-04-15T03:32:33.736Z,99053.44
2023-04-15T03:35:02.439Z,99058.75
2023-04-15T03:37:30.996Z,99048.81
2023-04-15T03:39:59.596Z,99047.69
2023-04-15T03:42:28.190Z,99047.53
2023-04-15T03:44:56.995Z,99048.34
2023-04-15T03:47:25.975Z,99053.06
2023-04-15T03:49:54.475Z,99056.38
2023-04-15T03:52:23.006Z,99056.56
2023-04-15T03:54:51.565Z,99052.25
2023-04-15T03:57:20.009Z,99048.59
2023-04-15T03:59:48.549Z,99055.56
2023-04-15T04:02:17.480Z,99053.91
2023-04-15T04:04:46.495Z,99055.63
2023-04-15T04:07:18.607Z,99048.03
2023-04-15T04:09:47.520Z,99049.03
2023-04-15T04:12:21.054Z,99049.50
2023-04-15T04:14:49.467Z,99046.31
2023-04-15T04:17:18.038Z,99042.47
2023-04-15T04:19:46.542Z,99037.03
2023-04-15T04:22:15.000Z,99042.84
2023-04-15T04:24:43.457Z,99053.44
2023-04-15T04:27:11.960Z,99048.97
2023-04-15T04:29:40.095Z,99055.09
2023-04-15T04:32:08.774Z,99054.91
2023-04-15T04:34:38.965Z,99052.72
2023-04-15T04:37:07.412Z,99048.44
2023-04-15T04:39:36.204Z,99050.06
2023-04-15T04:42:04.819Z,99055.56
2023-04-15T04:44:33.478Z,99047.63
2023-04-15T04:47:01.903Z,99048.59
2023-04-15T04:49:30.461Z,99044.78
2023-04-15T04:51:59.187Z,99041.50
2023-04-15T04:54:27.838Z,99037.84
2023-04-15T04:56:57.836Z,99042.47
2023-04-15T04:59:26.482Z,99044.13
2023-04-15T05:01:54.704Z,99051.09
2023-04-15T05:04:23.522Z,99044.78
2023-04-15T05:06:52.009Z,99051.56
2023-04-15T05:09:20.583Z,99049.34
2023-04-15T05:11:49.163Z,99052.19
2023-04-15T05:14:17.612Z,99052.81
2023-04-15T05:16:46.179Z,99046.31
2023-04-15T05:19:14.805Z,99056.66
2023-04-15T05:21:43.629Z,99047.88
2023-04-15T05:24:12.236Z,99040.03
2023-04-15T05:26:42.436Z,99040.03
2023-04-15T05:29:11.351Z,99039.41
2023-04-15T05:31:40.381Z,99041.03
2023-04-15T05:34:09.138Z,99041.22
2023-04-15T05:36:37.720Z,99047.88
2023-04-15T05:39:06.170Z,99047.72
2023-04-15T05:41:34.701Z,99039.56
2023-04-15T05:44:03.216Z,99050.44
2023-04-15T05:46:31.782Z,99046.97
2023-04-15T05:49:00.576Z,99042.13
2023-04-15T05:51:29.467Z,99048.53
2023-04-15T05:53:58.078Z,99047.53
2023-04-15T05:56:27.281Z,99041.22
2023-04-15T05:58:56.570Z,99047.53
2023-04-15T06:01:25.476Z,99047.16
2023-04-15T06:03:54.606Z,99051.63
2023-04-15T06:06:23.597Z,99037.19
2023-04-15T06:08:52.308Z,99039.84
2023-04-15T06:11:22.137Z,99038.84
2023-04-15T06:13:50.357Z,99040.59
2023-04-15T06:16:18.908Z,99037.09
2023-04-15T06:18:47.088Z,99027.50
2023-04-15T06:21:16.115Z,99039.31
2023-04-15T06:23:44.696Z,99035.53
2023-04-15T06:26:13.394Z,99034.91
2023-04-15T06:28:41.905Z,99033.06
2023-04-15T06:31:10.058Z,99039.00
2023-04-15T06:33:39.624Z,99042.66
2023-04-15T06:36:08.383Z,99040.47
2023-04-15T06:38:36.932Z,99043.94
2023-04-15T06:41:06.238Z,99040.09
2023-04-15T06:43:34.848Z,99035.00
2023-04-15T06:46:03.714Z,99038.28
2023-04-15T06:48:32.248Z,99033.50
2023-04-15T06:51:00.980Z,99037.00
2023-04-15T06:53:29.463Z,99042.13
2023-04-15T06:55:57.954Z,99044.13
2023-04-15T06:58:26.620Z,99042.28
2023-04-15T07:00:55.840Z,99040.94
2023-04-15T07:03:24.830Z,99046.84
2023-04-15T07:05:53.607Z,99054.25
2023-04-15T07:08:22.310Z,99056.75
2023-04-15T07:10:50.381Z,99050.41
2023-04-15T07:13:18.907Z,99052.22
2023-04-15T07:15:47.428Z,99045.94
2023-04-15T07:18:16.058Z,99054.34
2023-04-15T07:20:45.027Z,99060.66
2023-04-15T07:23:13.537Z,99061.47
2023-04-15T07:25:42.077Z,99064.94
2023-04-15T07:28:10.207Z,99072.06
2023-04-15T07:30:38.981Z,99066.59
2023-04-15T07:33:08.055Z,99062.47
2023-04-15T07:35:36.556Z,99063.75
2023-04-15T07:38:05.074Z,99067.84
2023-04-15T07:40:34.275Z,99066.31
2023-04-15T07:43:03.637Z,99063.66
2023-04-15T07:45:32.548Z,99059.59
2023-04-15T07:48:01.858Z,99068.59
2023-04-15T07:50:30.434Z,99077.00
2023-04-15T07:52:58.935Z,99070.03
2023-04-15T07:55:28.326Z,99071.88
2023-04-15T07:57:57.434Z,99074.50
2023-04-15T08:00:26.900Z,99082.47
2023-04-15T08:02:57.502Z,99081.56
2023-04-15T08:05:27.143Z,99082.84
2023-04-15T08:07:56.605Z,99087.03
2023-04-15T08:10:24.692Z,99083.38
2023-04-15T08:12:54.413Z,99085.19
2023-04-15T08:15:23.686Z,99086.03
2023-04-15T08:17:52.270Z,99082.19
2023-04-15T08:20:21.382Z,99081.34
2023-04-15T08:22:52.122Z,99092.25
2023-04-15T08:25:21.326Z,99089.47
2023-04-15T08:27:49.835Z,99098.63
2023-04-15T08:30:18.584Z,99089.47
2023-04-15T08:32:51.576Z,99093.63
2023-04-15T08:35:20.309Z,99100.38
2023-04-15T08:37:48.805Z,99103.03
2023-04-15T08:40:17.675Z,99102.47
2023-04-15T08:42:50.864Z,99105.75
2023-04-15T08:45:20.294Z,99113.72
2023-04-15T08:47:53.791Z,99107.22
2023-04-15T08:50:23.088Z,99105.84
2023-04-15T08:52:51.791Z,99109.94
2023-04-15T08:55:20.692Z,99108.13
2023-04-15T08:57:49.437Z,99110.41
2023-04-15T09:00:18.340Z,99108.19
2023-04-15T09:02:47.100Z,99116.97
2023-04-15T09:05:15.321Z,99118.88
2023-04-15T09:07:43.564Z,99120.16
2023-04-15T09:10:12.642Z,99119.78
2023-04-15T09:12:41.530Z,99120.50
2023-04-15T09:15:13.286Z,99120.38
2023-04-15T09:17:45.713Z,99116.53
2023-04-15T09:20:18.748Z,99125.78
2023-04-15T09:22:49.775Z,99124.38
2023-04-15T09:25:24.708Z,99122.97
2023-04-15T09:27:55.054Z,99134.25
2023-04-15T09:30:23.640Z,99135.53
2023-04-15T09:32:56.759Z,99132.03
2023-04-15T09:35:26.380Z,99135.53
2023-04-15T09:37:56.143Z,99136.53
2023-04-15T09:40:33.684Z,99143.94
2023-04-15T09:43:03.826Z,99146.22
2023-04-15T09:45:32.861Z,99144.16
2023-04-15T09:48:28.203Z,99139.31
2023-04-15T09:51:00.572Z,99145.69
2023-04-15T09:53:31.650Z,99158.56
2023-04-15T09:56:02.454Z,99152.88
2023-04-15T09:58:33.836Z,99158.41
2023-04-15T10:01:07.826Z,99157.19
2023-04-15T10:03:37.785Z,99154.34
2023-04-15T10:06:06.921Z,99159.00
2023-04-15T10:08:36.385Z,99162.50
2023-04-15T10:11:05.292Z,99160.28
2023-04-15T10:13:36.355Z,99157.41
2023-04-15T10:16:24.639Z,99169.25
2023-04-15T10:19:03.087Z,99172.38
2023-04-15T10:21:32.264Z,99167.69
2023-04-15T10:24:01.966Z,99172.63
2023-04-15T10:26:31.076Z,99173.69
2023-04-15T10:29:01.300Z,99172.75
2023-04-15T10:31:30.825Z,99177.91
2023-04-15T10:34:04.185Z,99179.50
2023-04-15T10:36:32.804Z,99185.19
2023-04-15T10:39:01.450Z,99188.47
2023-04-15T10:41:31.403Z,99188.31
2023-04-15T10:44:06.090Z,99184.16
2023-04-15T10:46:40.203Z,99182.59
2023-04-15T10:49:14.362Z,99188.34
2023-04-15T10:51:48.729Z,99185.31
2023-04-15T10:54:27.499Z,99182.25
2023-04-15T10:57:23.985Z,99198.28
2023-04-15T11:00:11.551Z,99194.56
2023-04-15T11:02:54.530Z,99200.53
2023-04-15T11:05:44.316Z,99193.19
2023-04-15T11:08:14.261Z,99198.31
2023-04-15T11:10:55.542Z,99193.63
2023-04-15T11:13:27.328Z,99196.91
2023-04-15T11:16:00.332Z,99204.31
2023-04-15T11:18:31.822Z,99212.91
2023-04-15T11:21:06.217Z,99211.88
2023-04-15T11:23:47.015Z,99212.91
2023-04-15T11:26:15.844Z,99208.56
2023-04-15T11:28:46.808Z,99220.88
2023-04-15T11:31:18.141Z,99211.72
2023-04-15T11:34:07.269Z,99213.72
2023-04-15T11:36:35.821Z,99221.13
2023-04-15T11:39:04.764Z,99225.44
2023-04-15T11:41:32.990Z,99231.16
2023-04-15T11:44:01.575Z,99229.56
2023-04-15T11:46:33.334Z,99239.97
2023-04-15T11:49:02.349Z,99240.38
2023-04-15T11:51:35.355Z,99238.09
2023-04-15T11:54:04.758Z,99245.50
2023-04-15T11:56:33.197Z,99245.13
2023-04-15T11:59:02.430Z,99252.09
2023-04-15T12:01:41.546Z,99249.03
2023-04-15T12:04:15.910Z,99257.03
2023-04-15T12:06:44.662Z,99263.97
2023-04-15T12:09:15.390Z,99262.97
2023-04-15T12:11:43.848Z,99271.94
2023-04-15T12:14:18.345Z,99267.66
2023-04-15T12:16:51.801Z,99270.50
2023-04-15T12:19:26.017Z,99276.22
2023-04-15T12:22:00.650Z,99279.50
2023-04-15T12:24:29.787Z,99278.03
2023-04-15T12:27:03.996Z,99285.19
2023-04-15T12:29:33.176Z,99289.34
2023-04-15T12:32:14.891Z,99295.00
2023-04-15T12:34:52.373Z,99298.31
2023-04-15T12:37:21.195Z,99290.97
2023-04-15T12:39:51.098Z,99300.38
2023-04-15T12:42:19.890Z,99302.25
2023-04-15T12:44:48.415Z,99300.66
2023-04-15T12:47:17.029Z,99309.13
2023-04-15T12:49:45.779Z,99304.72
2023-04-15T12:52:15.157Z,99308.03
2023-04-15T12:54:43.654Z,99311.91
2023-04-15T12:57:12.403Z,99305.56
2023-04-15T12:59:40.881Z,99315.41
2023-04-15T13:02:09.816Z,99317.19
2023-04-15T13:04:38.121Z,99318.19
2023-04-15T13:07:06.659Z,99328.25
2023-04-15T13:09:35.315Z,99327.81
2023-04-15T13:12:05.457Z,99334.97
2023-04-15T13:14:33.943Z,99332.94
2023-04-15T13:17:04.195Z,99343.16
2023-04-15T13:19:32.394Z,99338.00
2023-04-15T13:22:00.657Z,99344.53
2023-04-15T13:24:29.157Z,99340.84
2023-04-15T13:26:59.412Z,99348.47
2023-04-15T13:29:27.715Z,99354.63
2023-04-15T13:31:56.803Z,99350.34
2023-04-15T13:34:25.962Z,99345.16
2023-04-15T13:36:54.571Z,99355.25
2023-04-15T13:39:23.355Z,99350.56
2023-04-15T13:41:51.891Z,99364.03
2023-04-15T13:44:21.912Z,99362.88
2023-04-15T13:46:51.030Z,99363.31
2023-04-15T13:49:19.214Z,99362.91
2023-04-15T13:51:47.884Z,99363.09
2023-04-15T13:54:16.409Z,99362.41
2023-04-15T13:56:44.985Z,99372.25
2023-04-15T13:59:14.092Z,99378.31
2023-04-15T14:01:43.968Z,99376.72
2023-04-15T14:04:12.613Z,99381.88
2023-04-15T14:06:41.326Z,99382.88
2023-04-15T14:09:09.969Z,99378.00
2023-04-15T14:11:40.723Z,99383.06
2023-04-15T14:14:09.247Z,99388.00
2023-04-15T14:16:37.778Z,99397.03
2023-04-15T14:19:06.418Z,99395.81
2023-04-15T14:21:35.163Z,99406.91
2023-04-15T14:24:03.630Z,99414.25
2023-04-15T14:26:32.453Z,99413.22
2023-04-15T14:29:01.186Z,99413.22
2023-04-15T14:31:29.847Z,99414.03
2023-04-15T14:33:58.312Z,99415.88
2023-04-15T14:36:27.225Z,99424.25
2023-04-15T14:38:55.730Z,99423.03
2023-04-15T14:41:24.019Z,99432.50
2023-04-15T14:43:53.122Z,99433.94
2023-04-15T14:46:21.760Z,99436.78
2023-04-15T14:48:50.540Z,99439.84
2023-04-15T14:51:19.027Z,99448.25
2023-04-15T14:53:47.511Z,99452.97
2023-04-15T14:56:16.044Z,99453.78
2023-04-15T14:58:44.511Z,99452.97
2023-04-15T15:01:13.105Z,99460.75
2023-04-15T15:03:41.867Z,99458.53
2023-04-15T15:06:10.632Z,99467.84
2023-04-15T15:08:38.748Z,99455.63
2023-04-15T15:11:07.334Z,99464.50
2023-04-15T15:13:36.644Z,99458.97
2023-04-15T15:16:07.730Z,99473.72
2023-04-15T15:18:36.954Z,99478.59
2023-04-15T15:21:05.271Z,99485.84
2023-04-15T15:23:33.866Z,99487.75
2023-04-15T15:26:02.364Z,99492.44
2023-04-15T15:28:31.088Z,99486.03
2023-04-15T15:30:59.591Z,99493.63
2023-04-15T15:33:30.009Z,99494.09
2023-04-15T15:35:59.613Z,99503.53
2023-04-15T15:38:28.281Z,99498.41
2023-04-15T15:40:56.446Z,99498.41
2023-04-15T15:43:24.629Z,99499.84
2023-04-15T15:45:55.474Z,99509.94
2023-04-15T15:48:25.385Z,99504.69
2023-04-15T15:50:54.090Z,99513.28
2023-04-15T15:53:24.338Z,99513.09
2023-04-15T15:55:53.899Z,99521.34
2023-04-15T15:58:22.190Z,99527.09
2023-04-15T16:00:50.806Z,99518.72
2023-04-15T16:03:19.109Z,99524.06
2023-04-15T16:05:47.911Z,99528.38
2023-04-15T16:08:16.664Z,99543.97
2023-04-15T16:10:45.750Z,99535.78
2023-04-15T16:13:14.431Z,99538.44
2023-04-15T16:15:43.000Z,99538.72
2023-04-15T16:18:11.547Z,99541.38
2023-04-15T16:20:40.405Z,99552.81
2023-04-15T16:23:18.623Z,99551.81
2023-04-15T16:25:47.399Z,99551.81
2023-04-15T16:28:25.751Z,99555.31
2023-04-15T16:30:55.452Z,99554.47
2023-04-15T16:33:24.151Z,99567.56
2023-04-15T16:35:53.084Z,99563.41
2023-04-15T16:38:21.666Z,99565.72
2023-04-15T16:40:49.824Z,99567.34
2023-04-15T16:43:18.379Z,99568.19
2023-04-15T16:45:50.902Z,99570.41
2023-04-15T16:48:20.644Z,99575.13
2023-04-15T16:50:49.838Z,99571.63
2023-04-15T16:53:18.740Z,99584.09
2023-04-15T16:55:47.271Z,99582.44
2023-04-15T16:58:15.483Z,99588.59
2023-04-15T17:00:44.000Z,99584.50
2023-04-15T17:03:12.637Z,99590.66
2023-04-15T17:05:42.468Z,99591.47
2023-04-15T17:08:11.100Z,99599.47
2023-04-15T17:10:41.067Z,99595.16
2023-04-15T17:13:09.320Z,99602.69
2023-04-15T17:15:38.013Z,99616.84
2023-04-15T17:18:06.703Z,99616.22
2023-04-15T17:20:35.480Z,99617.22
2023-04-15T17:23:05.021Z,99616.56
2023-04-15T17:25:33.667Z,99622.09
2023-04-15T17:28:02.341Z,99618.59
2023-04-15T17:30:30.905Z,99623.31
2023-04-15T17:32:59.576Z,99626.41
2023-04-15T17:35:28.197Z,99627.41
2023-04-15T17:37:56.745Z,99651.19
2023-04-15T17:40:25.174Z,99642.56
2023-04-15T17:42:53.704Z,99648.28
2023-04-15T17:45:25.912Z,99642.50
2023-04-15T17:47:54.519Z,99655.81
2023-04-15T17:50:23.234Z,99653.16
2023-04-15T17:52:51.586Z,99665.00
2023-04-15T17:55:20.081Z,99662.72
2023-04-15T17:57:48.324Z,99668.41
2023-04-15T18:00:17.525Z,99671.25
2023-04-15T18:02:46.442Z,99671.25
2023-04-15T18:05:15.806Z,99682.03
2023-04-15T18:07:44.619Z,99674.22
2023-04-15T18:10:13.229Z,99680.56
2023-04-15T18:12:41.362Z,99680.75
2023-04-15T18:15:10.589Z,99687.72
2023-04-15T18:17:39.207Z,99689.56
2023-04-15T18:20:08.398Z,99701.22
2023-04-15T18:22:36.977Z,99703.03
2023-04-15T18:25:06.043Z,99706.38
2023-04-15T18:27:35.864Z,99711.22
2023-04-15T18:30:04.413Z,99722.72
2023-04-15T18:32:32.909Z,99714.72
2023-04-15T18:35:01.145Z,99720.84
2023-04-15T18:37:30.043Z,99722.50
2023-04-15T18:39:58.999Z,99734.16
2023-04-15T18:42:27.258Z,99727.38
2023-04-15T18:44:56.053Z,99738.84
2023-04-15T18:47:26.493Z,99735.56
2023-04-15T18:49:55.715Z,99738.84
2023-04-15T18:52:24.219Z,99740.69
2023-04-15T18:54:52.739Z,99734.53
2023-04-15T18:57:24.574Z,99738.38
2023-04-15T19:00:00.991Z,99744.53
2023-04-15T19:02:29.578Z,99745.75
2023-04-15T19:04:58.080Z,99758.00
2023-04-15T19:07:26.671Z,99755.34
2023-04-15T19:09:55.023Z,99755.72
2023-04-15T19:12:23.093Z,99762.91
2023-04-15T19:14:51.633Z,99760.59
2023-04-15T19:17:19.979Z,99766.09
2023-04-15T19:19:50.883Z,99772.25
2023-04-15T19:22:19.244Z,99773.88
2023-04-15T19:24:48.130Z,99771.22
2023-04-15T19:27:16.194Z,99776.56
2023-04-15T19:29:44.432Z,99788.84
2023-04-15T19:32:14.039Z,99781.06
2023-04-15T19:34:43.392Z,99780.25
2023-04-15T19:37:12.748Z,99786.41
2023-04-15T19:39:40.899Z,99785.56
2023-04-15T19:42:09.459Z,99783.28
2023-04-15T19:44:42.736Z,99794.56
2023-04-15T19:47:11.808Z,99794.56
2023-04-15T19:49:40.227Z,99785.56
2023-04-15T19:52:08.728Z,99797.84
2023-04-15T19:54:37.019Z,99796.00
2023-04-15T19:57:05.589Z,99790.88
2023-04-15T19:59:34.053Z,99792.72
2023-04-15T20:02:02.641Z,99797.03
2023-04-15T20:04:31.461Z,99798.03
2023-04-15T20:07:00.503Z,99794.88
2023-04-15T20:09:29.021Z,99797.72
2023-04-15T20:12:45.606Z,99798.53
2023-04-15T20:14:46.056Z,99799.38
2023-04-15T20:17:15.842Z,99801.19
2023-04-15T20:19:44.360Z,99802.03
2023-04-15T20:22:12.891Z,99803.69
2023-04-15T20:24:41.400Z,99806.53
2023-04-15T20:27:09.918Z,99807.34
2023-04-15T20:29:38.537Z,99811.84
2023-04-15T20:32:07.373Z,99819.84
2023-04-15T20:34:35.569Z,99818.00
2023-04-15T20:37:04.180Z,99820.66
2023-04-15T20:39:32.710Z,99825.00
2023-04-15T20:42:01.713Z,99823.19
2023-04-15T20:44:30.416Z,99821.50
2023-04-15T20:46:58.934Z,99825.84
2023-04-15T20:49:27.468Z,99822.31
2023-04-15T20:51:55.911Z,99817.00
2023-04-15T20:54:25.193Z,99832.00
2023-04-15T20:56:53.607Z,99831.31
2023-04-15T20:59:22.157Z,99835.63
2023-04-15T21:01:51.449Z,99834.66
2023-04-15T21:04:19.570Z,99834.81
2023-04-15T21:06:48.457Z,99831.66
2023-04-15T21:09:16.515Z,99840.66
2023-04-15T21:14:22.033Z,99841.38
2023-04-15T21:16:50.629Z,99843.22
2023-04-15T21:19:18.795Z,99848.38
2023-04-15T21:21:46.967Z,99844.22
2023-04-15T21:24:15.099Z,99852.22
2023-04-15T21:26:44.144Z,99853.22
2023-04-15T21:29:12.975Z,99863.84
2023-04-15T21:31:41.732Z,99862.19
2023-04-15T21:34:10.691Z,99861.38
2023-04-15T21:36:39.858Z,99858.91
2023-04-15T21:39:08.366Z,99861.56
2023-04-15T21:41:37.914Z,99863.22
2023-04-15T21:44:06.557Z,99865.88
2023-04-15T21:46:36.057Z,99868.34
2023-04-15T21:49:04.793Z,99873.66
2023-04-15T21:51:33.553Z,99878.16
2023-04-15T21:54:02.062Z,99876.53
2023-04-15T21:56:30.584Z,99885.50
2023-04-15T21:58:59.328Z,99884.66
2023-04-15T22:01:28.342Z,99881.38
2023-04-15T22:03:56.834Z,99896.31
2023-04-15T22:06:25.549Z,99894.47
2023-04-15T22:08:57.363Z,99896.16
2023-04-15T22:11:28.467Z,99903.97
2023-04-15T22:13:58.396Z,99907.41
2023-04-15T22:16:27.798Z,99901.75
2023-04-15T22:18:58.990Z,99904.59
2023-04-15T22:21:27.894Z,99904.41
2023-04-15T22:24:38.309Z,99907.06
2023-04-15T22:26:44.908Z,99909.56
2023-04-15T22:29:13.596Z,99914.25
2023-04-15T22:31:42.476Z,99912.59
2023-04-15T22:34:11.084Z,99924.06
2023-04-15T22:36:39.181Z,99918.91
2023-04-15T22:39:07.972Z,99923.59
2023-04-15T22:41:36.644Z,99930.72
2023-04-15T22:44:04.802Z,99935.88
2023-04-15T22:46:33.307Z,99934.03
2023-04-15T22:49:01.936Z,99928.53
2023-04-15T22:51:30.386Z,99937.34
2023-04-15T22:53:59.028Z,99938.34
2023-04-15T22:56:27.594Z,99935.69
2023-04-15T22:58:56.076Z,99944.69
2023-04-15T23:01:24.785Z,99942.84
2023-04-15T23:03:55.512Z,99941.00
2023-04-15T23:06:27.110Z,99942.00
2023-04-15T23:08:56.026Z,99951.84
2023-04-15T23:11:24.542Z,99958.16
2023-04-15T23:13:53.146Z,99952.00
2023-04-15T23:16:21.266Z,99952.19
2023-04-15T23:18:49.494Z,99954.03
2023-04-15T23:21:18.011Z,99958.34
2023-04-15T23:23:46.145Z,99948.88
2023-04-15T23:26:14.455Z,99959.53
2023-04-15T23:28:43.173Z,99955.38
2023-04-15T23:31:11.934Z,99959.88
2023-04-15T23:33:40.449Z,99959.03
2023-04-15T23:36:08.780Z,99955.53
2023-04-15T23:38:37.638Z,99954.72
2023-04-15T23:41:06.216Z,99955.53
2023-04-15T23:43:34.361Z,99952.88
2023-04-15T23:46:02.663Z,99962.53
2023-04-15T23:48:31.231Z,99960.88
2023-04-15T23:51:00.704Z,99959.22
2023-04-15T23:53:30.869Z,99955.75
2023-04-15T23:55:59.407Z,99959.41
2023-04-15T23:58:27.651Z,99963.88
